sensor_id;sensor_type;location;lat;lon;timestamp;temperature;humidity
21559;DHT22;10940;48.890;8.240;2023-03-17T00:00:08;4.80;99.90
21559;DHT22;10940;48.890;8.240;2023-03-17T00:02:35;4.80;99.90
21559;DHT22;10940;48.890;8.240;2023-03-17T00:05:01;4.80;99.90
21559;DHT22;10940;48.890;8.240;2023-03-17T00:07:27;4.90;99.90
21559;DHT22;10940;48.890;8.240;2023-03-17T00:09:53;4.90;99.90
21559;DHT22;10940;48.890;8.240;2023-03-17T00:12:18;5.00;99.90
21559;DHT22;10940;48.890;8.240;2023-03-17T00:14:44;4.90;99.90
21559;DHT22;10940;48.890;8.240;2023-03-17T00:17:13;4.90;99.90
21559;DHT22;10940;48.890;8.240;2023-03-17T00:19:39;4.90;99.90
21559;DHT22;10940;48.890;8.240;2023-03-17T00:22:15;4.80;99.90
21559;DHT22;10940;48.890;8.240;2023-03-17T00:24:42;4.90;99.90
21559;DHT22;10940;48.890;8.240;2023-03-17T00:27:11;5.00;99.90
21559;DHT22;10940;48.890;8.240;2023-03-17T00:29:38;5.10;99.90
21559;DHT22;10940;48.890;8.240;2023-03-17T00:32:08;5.20;99.90
21559;DHT22;10940;48.890;8.240;2023-03-17T00:34:35;5.20;99.90
21559;DHT22;10940;48.890;8.240;2023-03-17T00:37:01;5.20;99.90
21559;DHT22;10940;48.890;8.240;2023-03-17T00:39:26;5.20;99.90
21559;DHT22;10940;48.890;8.240;2023-03-17T00:41:52;5.10;99.90
21559;DHT22;10940;48.890;8.240;2023-03-17T00:44:18;5.10;99.90
21559;DHT22;10940;48.890;8.240;2023-03-17T00:46:44;5.00;99.90
21559;DHT22;10940;48.890;8.240;2023-03-17T00:49:14;5.00;99.90
21559;DHT22;10940;48.890;8.240;2023-03-17T00:51:42;5.10;99.90
21559;DHT22;10940;48.890;8.240;2023-03-17T00:54:09;5.10;99.90
21559;DHT22;10940;48.890;8.240;2023-03-17T00:56:36;5.00;99.90
21559;DHT22;10940;48.890;8.240;2023-03-17T00:59:02;5.00;99.90
21559;DHT22;10940;48.890;8.240;2023-03-17T01:01:28;4.90;99.90
21559;DHT22;10940;48.890;8.240;2023-03-17T01:03:54;4.90;99.90
21559;DHT22;10940;48.890;8.240;2023-03-17T01:06:20;4.80;99.90
21559;DHT22;10940;48.890;8.240;2023-03-17T01:08:46;4.90;99.90
21559;DHT22;10940;48.890;8.240;2023-03-17T01:11:16;4.80;99.90
21559;DHT22;10940;48.890;8.240;2023-03-17T01:13:43;4.70;99.90
21559;DHT22;10940;48.890;8.240;2023-03-17T01:16:10;4.70;99.90
21559;DHT22;10940;48.890;8.240;2023-03-17T01:18:36;4.70;99.90
21559;DHT22;10940;48.890;8.240;2023-03-17T01:21:02;4.60;99.90
21559;DHT22;10940;48.890;8.240;2023-03-17T01:23:29;4.70;99.90
21559;DHT22;10940;48.890;8.240;2023-03-17T01:25:56;4.60;99.90
21559;DHT22;10940;48.890;8.240;2023-03-17T01:28:22;4.60;99.90
21559;DHT22;10940;48.890;8.240;2023-03-17T01:30:47;4.50;99.90
21559;DHT22;10940;48.890;8.240;2023-03-17T01:33:14;4.50;99.90
21559;DHT22;10940;48.890;8.240;2023-03-17T01:35:40;4.50;99.90
21559;DHT22;10940;48.890;8.240;2023-03-17T01:38:08;4.50;99.90
21559;DHT22;10940;48.890;8.240;2023-03-17T01:40:36;4.50;99.90
21559;DHT22;10940;48.890;8.240;2023-03-17T01:48:43;4.50;99.90
21559;DHT22;10940;48.890;8.240;2023-03-17T01:51:25;4.40;99.90
21559;DHT22;10940;48.890;8.240;2023-03-17T01:53:55;4.40;99.90
21559;DHT22;10940;48.890;8.240;2023-03-17T01:56:21;4.40;99.90
21559;DHT22;10940;48.890;8.240;2023-03-17T01:58:50;4.40;99.90
21559;DHT22;10940;48.890;8.240;2023-03-17T02:01:18;4.50;99.90
21559;DHT22;10940;48.890;8.240;2023-03-17T02:03:45;4.50;99.90
21559;DHT22;10940;48.890;8.240;2023-03-17T02:06:11;4.60;99.90
21559;DHT22;10940;48.890;8.240;2023-03-17T02:08:37;4.80;99.90
21559;DHT22;10940;48.890;8.240;2023-03-17T02:11:03;4.80;99.90
21559;DHT22;10940;48.890;8.240;2023-03-17T02:13:29;4.90;99.90
21559;DHT22;10940;48.890;8.240;2023-03-17T02:15:55;4.90;99.90
21559;DHT22;10940;48.890;8.240;2023-03-17T02:18:21;4.80;99.90
21559;DHT22;10940;48.890;8.240;2023-03-17T02:23:19;4.70;99.90
21559;DHT22;10940;48.890;8.240;2023-03-17T02:25:47;4.70;99.90
21559;DHT22;10940;48.890;8.240;2023-03-17T02:28:22;4.70;99.90
21559;DHT22;10940;48.890;8.240;2023-03-17T02:30:47;4.60;99.90
21559;DHT22;10940;48.890;8.240;2023-03-17T02:33:13;4.60;99.90
21559;DHT22;10940;48.890;8.240;2023-03-17T02:35:39;4.50;99.90
21559;DHT22;10940;48.890;8.240;2023-03-17T02:38:05;4.50;99.90
21559;DHT22;10940;48.890;8.240;2023-03-17T02:40:31;4.40;99.90
21559;DHT22;10940;48.890;8.240;2023-03-17T02:42:57;4.40;99.90
21559;DHT22;10940;48.890;8.240;2023-03-17T02:45:23;4.30;99.90
21559;DHT22;10940;48.890;8.240;2023-03-17T02:47:49;4.30;99.90
21559;DHT22;10940;48.890;8.240;2023-03-17T02:50:21;4.20;99.90
21559;DHT22;10940;48.890;8.240;2023-03-17T02:52:48;4.20;99.90
21559;DHT22;10940;48.890;8.240;2023-03-17T02:55:13;4.10;99.90
21559;DHT22;10940;48.890;8.240;2023-03-17T02:57:39;4.10;99.90
21559;DHT22;10940;48.890;8.240;2023-03-17T03:00:06;4.00;99.90
21559;DHT22;10940;48.890;8.240;2023-03-17T03:02:35;3.90;99.90
21559;DHT22;10940;48.890;8.240;2023-03-17T03:05:02;3.90;99.90
21559;DHT22;10940;48.890;8.240;2023-03-17T03:07:28;3.80;99.90
21559;DHT22;10940;48.890;8.240;2023-03-17T03:09:53;3.70;99.90
21559;DHT22;10940;48.890;8.240;2023-03-17T03:12:19;3.70;99.90
21559;DHT22;10940;48.890;8.240;2023-03-17T03:14:44;3.60;99.90
21559;DHT22;10940;48.890;8.240;2023-03-17T03:17:10;3.60;99.90
21559;DHT22;10940;48.890;8.240;2023-03-17T03:19:36;3.50;99.90
21559;DHT22;10940;48.890;8.240;2023-03-17T03:22:01;3.50;99.90
21559;DHT22;10940;48.890;8.240;2023-03-17T03:24:27;3.50;99.90
21559;DHT22;10940;48.890;8.240;2023-03-17T03:26:53;3.40;99.90
21559;DHT22;10940;48.890;8.240;2023-03-17T03:29:18;3.40;99.90
21559;DHT22;10940;48.890;8.240;2023-03-17T03:31:44;3.40;99.90
21559;DHT22;10940;48.890;8.240;2023-03-17T03:34:10;3.30;99.90
21559;DHT22;10940;48.890;8.240;2023-03-17T03:36:35;3.30;99.90
21559;DHT22;10940;48.890;8.240;2023-03-17T03:39:01;3.30;99.90
21559;DHT22;10940;48.890;8.240;2023-03-17T03:41:28;3.20;99.90
21559;DHT22;10940;48.890;8.240;2023-03-17T03:43:53;3.20;99.90
21559;DHT22;10940;48.890;8.240;2023-03-17T03:46:19;3.10;99.90
21559;DHT22;10940;48.890;8.240;2023-03-17T03:48:44;3.10;99.90
21559;DHT22;10940;48.890;8.240;2023-03-17T03:51:10;3.10;99.90
21559;DHT22;10940;48.890;8.240;2023-03-17T03:53:35;3.00;99.90
21559;DHT22;10940;48.890;8.240;2023-03-17T03:56:01;3.00;99.90
21559;DHT22;10940;48.890;8.240;2023-03-17T03:58:27;2.90;99.90
21559;DHT22;10940;48.890;8.240;2023-03-17T04:00:52;2.80;99.90
21559;DHT22;10940;48.890;8.240;2023-03-17T04:03:18;2.80;99.90
21559;DHT22;10940;48.890;8.240;2023-03-17T04:05:44;2.80;99.90
21559;DHT22;10940;48.890;8.240;2023-03-17T04:08:09;2.80;99.90
21559;DHT22;10940;48.890;8.240;2023-03-17T04:10:36;2.70;99.90
21559;DHT22;10940;48.890;8.240;2023-03-17T04:13:01;2.70;99.90
21559;DHT22;10940;48.890;8.240;2023-03-17T04:15:27;2.60;99.90
21559;DHT22;10940;48.890;8.240;2023-03-17T04:17:53;2.60;99.90
21559;DHT22;10940;48.890;8.240;2023-03-17T04:20:21;2.50;99.90
21559;DHT22;10940;48.890;8.240;2023-03-17T04:22:47;2.40;99.90
21559;DHT22;10940;48.890;8.240;2023-03-17T04:25:14;2.40;99.90
21559;DHT22;10940;48.890;8.240;2023-03-17T04:27:41;2.40;99.90
21559;DHT22;10940;48.890;8.240;2023-03-17T04:30:07;2.30;99.90
21559;DHT22;10940;48.890;8.240;2023-03-17T04:32:33;2.30;99.90
21559;DHT22;10940;48.890;8.240;2023-03-17T04:34:59;2.30;99.90
21559;DHT22;10940;48.890;8.240;2023-03-17T04:37:25;2.30;99.90
21559;DHT22;10940;48.890;8.240;2023-03-17T04:39:50;2.30;99.90
21559;DHT22;10940;48.890;8.240;2023-03-17T04:42:16;2.30;99.90
21559;DHT22;10940;48.890;8.240;2023-03-17T04:44:42;2.40;99.90
21559;DHT22;10940;48.890;8.240;2023-03-17T04:47:08;2.40;99.90
21559;DHT22;10940;48.890;8.240;2023-03-17T04:49:33;2.40;99.90
21559;DHT22;10940;48.890;8.240;2023-03-17T04:51:59;2.40;99.90
21559;DHT22;10940;48.890;8.240;2023-03-17T04:54:25;2.40;99.90
21559;DHT22;10940;48.890;8.240;2023-03-17T04:56:50;2.50;99.90
21559;DHT22;10940;48.890;8.240;2023-03-17T04:59:16;2.40;99.90
21559;DHT22;10940;48.890;8.240;2023-03-17T05:01:42;2.40;99.90
21559;DHT22;10940;48.890;8.240;2023-03-17T05:04:08;2.40;99.90
21559;DHT22;10940;48.890;8.240;2023-03-17T05:06:33;2.40;99.90
21559;DHT22;10940;48.890;8.240;2023-03-17T05:09:00;2.40;99.90
21559;DHT22;10940;48.890;8.240;2023-03-17T05:11:25;2.40;99.90
21559;DHT22;10940;48.890;8.240;2023-03-17T05:13:51;2.50;99.90
21559;DHT22;10940;48.890;8.240;2023-03-17T05:16:16;2.50;99.90
21559;DHT22;10940;48.890;8.240;2023-03-17T05:18:42;2.40;99.90
21559;DHT22;10940;48.890;8.240;2023-03-17T05:21:08;2.40;99.90
21559;DHT22;10940;48.890;8.240;2023-03-17T05:23:34;2.40;99.90
21559;DHT22;10940;48.890;8.240;2023-03-17T05:26:00;2.40;99.90
21559;DHT22;10940;48.890;8.240;2023-03-17T05:28:26;2.40;99.90
21559;DHT22;10940;48.890;8.240;2023-03-17T05:30:52;2.50;99.90
21559;DHT22;10940;48.890;8.240;2023-03-17T05:33:18;2.50;99.90
21559;DHT22;10940;48.890;8.240;2023-03-17T05:35:45;2.50;99.90
21559;DHT22;10940;48.890;8.240;2023-03-17T05:38:11;2.50;99.90
21559;DHT22;10940;48.890;8.240;2023-03-17T05:40:37;2.50;99.90
21559;DHT22;10940;48.890;8.240;2023-03-17T05:43:04;2.60;99.90
21559;DHT22;10940;48.890;8.240;2023-03-17T05:45:30;2.60;99.90
21559;DHT22;10940;48.890;8.240;2023-03-17T05:47:56;2.60;99.90
21559;DHT22;10940;48.890;8.240;2023-03-17T05:50:22;2.70;99.90
21559;DHT22;10940;48.890;8.240;2023-03-17T05:52:48;2.70;99.90
21559;DHT22;10940;48.890;8.240;2023-03-17T05:55:13;2.70;99.90
21559;DHT22;10940;48.890;8.240;2023-03-17T05:57:39;2.70;99.90
21559;DHT22;10940;48.890;8.240;2023-03-17T06:00:06;2.70;99.90
21559;DHT22;10940;48.890;8.240;2023-03-17T06:02:32;2.60;99.90
21559;DHT22;10940;48.890;8.240;2023-03-17T06:04:58;2.60;99.90
21559;DHT22;10940;48.890;8.240;2023-03-17T06:07:23;2.50;99.90
21559;DHT22;10940;48.890;8.240;2023-03-17T06:09:49;2.50;99.90
21559;DHT22;10940;48.890;8.240;2023-03-17T06:12:14;2.50;99.90
21559;DHT22;10940;48.890;8.240;2023-03-17T06:14:40;2.50;99.90
21559;DHT22;10940;48.890;8.240;2023-03-17T06:17:06;2.50;99.90
21559;DHT22;10940;48.890;8.240;2023-03-17T06:19:32;2.50;99.90
21559;DHT22;10940;48.890;8.240;2023-03-17T06:21:58;2.50;99.90
21559;DHT22;10940;48.890;8.240;2023-03-17T06:24:24;2.50;99.90
21559;DHT22;10940;48.890;8.240;2023-03-17T06:26:50;2.50;99.90
21559;DHT22;10940;48.890;8.240;2023-03-17T06:29:17;2.50;99.90
21559;DHT22;10940;48.890;8.240;2023-03-17T06:31:43;2.60;99.90
21559;DHT22;10940;48.890;8.240;2023-03-17T06:34:15;2.70;99.90
21559;DHT22;10940;48.890;8.240;2023-03-17T06:36:41;2.80;99.90
21559;DHT22;10940;48.890;8.240;2023-03-17T06:39:07;2.80;99.90
21559;DHT22;10940;48.890;8.240;2023-03-17T06:41:34;3.00;99.90
21559;DHT22;10940;48.890;8.240;2023-03-17T06:44:00;3.10;99.90
21559;DHT22;10940;48.890;8.240;2023-03-17T06:46:25;3.20;99.90
21559;DHT22;10940;48.890;8.240;2023-03-17T06:48:51;3.30;99.90
21559;DHT22;10940;48.890;8.240;2023-03-17T06:51:17;3.40;99.90
21559;DHT22;10940;48.890;8.240;2023-03-17T06:53:42;3.60;99.90
21559;DHT22;10940;48.890;8.240;2023-03-17T06:56:08;3.70;99.90
21559;DHT22;10940;48.890;8.240;2023-03-17T06:58:34;3.90;99.90
21559;DHT22;10940;48.890;8.240;2023-03-17T07:00:59;4.00;99.90
21559;DHT22;10940;48.890;8.240;2023-03-17T07:03:26;4.10;99.90
21559;DHT22;10940;48.890;8.240;2023-03-17T07:05:52;4.20;99.90
21559;DHT22;10940;48.890;8.240;2023-03-17T07:08:19;4.30;99.90
21559;DHT22;10940;48.890;8.240;2023-03-17T07:10:46;4.40;99.90
21559;DHT22;10940;48.890;8.240;2023-03-17T07:13:11;4.50;99.90
21559;DHT22;10940;48.890;8.240;2023-03-17T07:15:37;4.60;99.90
21559;DHT22;10940;48.890;8.240;2023-03-17T07:18:04;4.70;99.90
21559;DHT22;10940;48.890;8.240;2023-03-17T07:20:30;4.70;99.90
21559;DHT22;10940;48.890;8.240;2023-03-17T07:22:56;4.90;99.90
21559;DHT22;10940;48.890;8.240;2023-03-17T07:25:23;5.00;99.90
21559;DHT22;10940;48.890;8.240;2023-03-17T07:27:49;5.10;99.90
21559;DHT22;10940;48.890;8.240;2023-03-17T07:30:15;5.20;99.90
21559;DHT22;10940;48.890;8.240;2023-03-17T07:32:46;5.30;99.90
21559;DHT22;10940;48.890;8.240;2023-03-17T07:35:13;5.40;99.90
21559;DHT22;10940;48.890;8.240;2023-03-17T07:37:40;5.50;99.90
21559;DHT22;10940;48.890;8.240;2023-03-17T07:40:06;5.80;99.90
21559;DHT22;10940;48.890;8.240;2023-03-17T07:42:34;5.90;99.90
21559;DHT22;10940;48.890;8.240;2023-03-17T07:44:59;6.10;99.90
21559;DHT22;10940;48.890;8.240;2023-03-17T07:47:25;6.30;99.90
21559;DHT22;10940;48.890;8.240;2023-03-17T07:49:51;6.40;99.90
21559;DHT22;10940;48.890;8.240;2023-03-17T07:52:17;6.60;99.90
21559;DHT22;10940;48.890;8.240;2023-03-17T07:54:43;6.70;99.90
21559;DHT22;10940;48.890;8.240;2023-03-17T07:57:10;6.90;99.90
21559;DHT22;10940;48.890;8.240;2023-03-17T07:59:36;7.10;99.90
21559;DHT22;10940;48.890;8.240;2023-03-17T08:02:02;7.30;99.90
21559;DHT22;10940;48.890;8.240;2023-03-17T08:04:28;7.40;99.90
21559;DHT22;10940;48.890;8.240;2023-03-17T08:06:53;7.50;99.90
21559;DHT22;10940;48.890;8.240;2023-03-17T08:09:20;7.70;99.90
21559;DHT22;10940;48.890;8.240;2023-03-17T08:11:48;7.90;99.90
21559;DHT22;10940;48.890;8.240;2023-03-17T08:14:14;8.10;99.90
21559;DHT22;10940;48.890;8.240;2023-03-17T08:16:40;8.20;99.90
21559;DHT22;10940;48.890;8.240;2023-03-17T08:19:06;8.40;99.90
21559;DHT22;10940;48.890;8.240;2023-03-17T08:21:32;8.60;99.90
21559;DHT22;10940;48.890;8.240;2023-03-17T08:23:58;8.70;99.90
21559;DHT22;10940;48.890;8.240;2023-03-17T08:26:28;8.80;99.90
21559;DHT22;10940;48.890;8.240;2023-03-17T08:28:54;9.00;99.90
21559;DHT22;10940;48.890;8.240;2023-03-17T08:31:23;9.10;99.90
21559;DHT22;10940;48.890;8.240;2023-03-17T08:33:51;9.20;99.90
21559;DHT22;10940;48.890;8.240;2023-03-17T08:36:17;9.30;99.90
21559;DHT22;10940;48.890;8.240;2023-03-17T08:38:44;9.40;99.90
21559;DHT22;10940;48.890;8.240;2023-03-17T08:41:13;9.60;99.90
21559;DHT22;10940;48.890;8.240;2023-03-17T08:43:40;9.60;99.90
21559;DHT22;10940;48.890;8.240;2023-03-17T08:46:20;9.80;99.90
21559;DHT22;10940;48.890;8.240;2023-03-17T08:48:48;9.90;99.90
21559;DHT22;10940;48.890;8.240;2023-03-17T08:51:19;10.00;99.90
21559;DHT22;10940;48.890;8.240;2023-03-17T08:53:45;10.20;99.90
21559;DHT22;10940;48.890;8.240;2023-03-17T08:56:12;10.30;99.90
21559;DHT22;10940;48.890;8.240;2023-03-17T08:58:38;10.40;99.90
21559;DHT22;10940;48.890;8.240;2023-03-17T09:01:05;10.60;99.90
21559;DHT22;10940;48.890;8.240;2023-03-17T09:03:32;10.80;99.90
21559;DHT22;10940;48.890;8.240;2023-03-17T09:05:58;10.90;99.90
21559;DHT22;10940;48.890;8.240;2023-03-17T09:08:25;11.00;99.90
21559;DHT22;10940;48.890;8.240;2023-03-17T09:10:51;11.10;99.90
21559;DHT22;10940;48.890;8.240;2023-03-17T09:13:16;11.40;99.90
21559;DHT22;10940;48.890;8.240;2023-03-17T09:15:43;11.50;99.90
21559;DHT22;10940;48.890;8.240;2023-03-17T09:18:10;11.70;99.90
21559;DHT22;10940;48.890;8.240;2023-03-17T09:20:36;11.90;99.90
21559;DHT22;10940;48.890;8.240;2023-03-17T09:23:05;12.00;99.90
21559;DHT22;10940;48.890;8.240;2023-03-17T09:25:34;12.10;99.90
21559;DHT22;10940;48.890;8.240;2023-03-17T09:28:00;12.20;99.90
21559;DHT22;10940;48.890;8.240;2023-03-17T09:30:26;12.30;99.90
21559;DHT22;10940;48.890;8.240;2023-03-17T09:32:52;12.40;99.90
21559;DHT22;10940;48.890;8.240;2023-03-17T09:35:18;12.50;99.90
21559;DHT22;10940;48.890;8.240;2023-03-17T09:37:46;12.50;99.90
21559;DHT22;10940;48.890;8.240;2023-03-17T09:40:16;12.60;99.90
21559;DHT22;10940;48.890;8.240;2023-03-17T09:48:49;12.60;99.90
21559;DHT22;10940;48.890;8.240;2023-03-17T09:51:18;12.70;99.90
21559;DHT22;10940;48.890;8.240;2023-03-17T09:53:53;13.10;99.90
21559;DHT22;10940;48.890;8.240;2023-03-17T09:56:22;13.10;99.90
21559;DHT22;10940;48.890;8.240;2023-03-17T09:58:59;13.20;99.90
21559;DHT22;10940;48.890;8.240;2023-03-17T10:01:28;13.20;99.90
21559;DHT22;10940;48.890;8.240;2023-03-17T10:03:54;13.30;99.90
21559;DHT22;10940;48.890;8.240;2023-03-17T10:06:31;13.20;99.90
21559;DHT22;10940;48.890;8.240;2023-03-17T10:09:11;13.20;99.90
21559;DHT22;10940;48.890;8.240;2023-03-17T10:11:42;13.20;99.90
21559;DHT22;10940;48.890;8.240;2023-03-17T10:16:45;13.50;99.90
21559;DHT22;10940;48.890;8.240;2023-03-17T10:21:50;13.80;99.90
21559;DHT22;10940;48.890;8.240;2023-03-17T10:24:18;13.80;99.90
21559;DHT22;10940;48.890;8.240;2023-03-17T10:26:51;14.00;99.90
21559;DHT22;10940;48.890;8.240;2023-03-17T10:29:24;14.00;99.90
21559;DHT22;10940;48.890;8.240;2023-03-17T10:31:51;14.00;99.90
21559;DHT22;10940;48.890;8.240;2023-03-17T10:34:22;14.00;99.90
21559;DHT22;10940;48.890;8.240;2023-03-17T10:36:52;14.00;99.90
21559;DHT22;10940;48.890;8.240;2023-03-17T10:39:20;14.10;99.90
21559;DHT22;10940;48.890;8.240;2023-03-17T10:42:09;14.20;99.90
21559;DHT22;10940;48.890;8.240;2023-03-17T10:45:29;14.30;99.90
21559;DHT22;10940;48.890;8.240;2023-03-17T10:47:49;14.40;99.90
21559;DHT22;10940;48.890;8.240;2023-03-17T10:50:30;14.50;99.90
21559;DHT22;10940;48.890;8.240;2023-03-17T10:53:04;14.40;99.90
21559;DHT22;10940;48.890;8.240;2023-03-17T10:55:40;14.20;99.90
21559;DHT22;10940;48.890;8.240;2023-03-17T11:03:39;14.20;99.90
21559;DHT22;10940;48.890;8.240;2023-03-17T11:06:11;14.30;99.90
21559;DHT22;10940;48.890;8.240;2023-03-17T11:08:40;14.40;99.90
21559;DHT22;10940;48.890;8.240;2023-03-17T11:11:28;14.60;99.90
21559;DHT22;10940;48.890;8.240;2023-03-17T11:16:37;14.80;99.90
21559;DHT22;10940;48.890;8.240;2023-03-17T11:19:10;15.00;99.90
21559;DHT22;10940;48.890;8.240;2023-03-17T11:24:16;15.10;99.90
21559;DHT22;10940;48.890;8.240;2023-03-17T11:27:03;15.10;99.90
21559;DHT22;10940;48.890;8.240;2023-03-17T11:32:46;15.50;99.90
21559;DHT22;10940;48.890;8.240;2023-03-17T11:38:19;15.60;99.90
21559;DHT22;10940;48.890;8.240;2023-03-17T11:43:35;15.90;99.90
21559;DHT22;10940;48.890;8.240;2023-03-17T11:56:45;16.10;99.90
21559;DHT22;10940;48.890;8.240;2023-03-17T11:59:24;16.00;99.90
21559;DHT22;10940;48.890;8.240;2023-03-17T12:05:25;15.80;99.90
21559;DHT22;10940;48.890;8.240;2023-03-17T12:07:56;15.70;99.90
21559;DHT22;10940;48.890;8.240;2023-03-17T12:10:38;15.80;99.90
21559;DHT22;10940;48.890;8.240;2023-03-17T12:13:08;15.80;99.90
21559;DHT22;10940;48.890;8.240;2023-03-17T12:15:41;15.70;99.90
21559;DHT22;10940;48.890;8.240;2023-03-17T12:18:20;15.70;99.90
21559;DHT22;10940;48.890;8.240;2023-03-17T12:26:04;15.80;99.90
21559;DHT22;10940;48.890;8.240;2023-03-17T12:28:44;16.00;99.90
21559;DHT22;10940;48.890;8.240;2023-03-17T12:34:00;16.20;99.90
21559;DHT22;10940;48.890;8.240;2023-03-17T12:36:29;16.20;99.90
21559;DHT22;10940;48.890;8.240;2023-03-17T12:39:05;16.30;99.90
21559;DHT22;10940;48.890;8.240;2023-03-17T12:47:14;17.00;99.90
21559;DHT22;10940;48.890;8.240;2023-03-17T12:55:26;17.30;99.90
21559;DHT22;10940;48.890;8.240;2023-03-17T13:04:12;17.80;99.90
21559;DHT22;10940;48.890;8.240;2023-03-17T13:07:03;17.90;99.90
21559;DHT22;10940;48.890;8.240;2023-03-17T13:11:56;17.90;99.90
21559;DHT22;10940;48.890;8.240;2023-03-17T13:17:28;18.20;99.90
21559;DHT22;10940;48.890;8.240;2023-03-17T13:22:35;18.60;99.90
21559;DHT22;10940;48.890;8.240;2023-03-17T13:25:30;18.60;99.90
21559;DHT22;10940;48.890;8.240;2023-03-17T13:46:44;19.00;98.60
21559;DHT22;10940;48.890;8.240;2023-03-17T13:51:48;18.80;98.00
21559;DHT22;10940;48.890;8.240;2023-03-17T13:54:32;18.60;98.50
21559;DHT22;10940;48.890;8.240;2023-03-17T13:57:22;18.50;98.10
21559;DHT22;10940;48.890;8.240;2023-03-17T14:02:17;18.30;98.60
21559;DHT22;10940;48.890;8.240;2023-03-17T14:04:54;18.10;98.80
21559;DHT22;10940;48.890;8.240;2023-03-17T14:07:24;18.20;98.60
21559;DHT22;10940;48.890;8.240;2023-03-17T14:09:57;18.20;98.70
21559;DHT22;10940;48.890;8.240;2023-03-17T14:12:38;18.50;98.40
21559;DHT22;10940;48.890;8.240;2023-03-17T14:15:28;18.90;96.30
21559;DHT22;10940;48.890;8.240;2023-03-17T14:18:06;19.00;95.90
21559;DHT22;10940;48.890;8.240;2023-03-17T14:20:33;19.00;97.00
21559;DHT22;10940;48.890;8.240;2023-03-17T14:23:01;18.90;96.90
21559;DHT22;10940;48.890;8.240;2023-03-17T14:25:33;18.70;98.40
21559;DHT22;10940;48.890;8.240;2023-03-17T14:27:59;18.60;98.50
21559;DHT22;10940;48.890;8.240;2023-03-17T14:30:30;18.50;97.50
21559;DHT22;10940;48.890;8.240;2023-03-17T14:33:19;18.30;98.00
21559;DHT22;10940;48.890;8.240;2023-03-17T14:35:49;18.30;98.00
21559;DHT22;10940;48.890;8.240;2023-03-17T14:38:30;18.30;97.70
21559;DHT22;10940;48.890;8.240;2023-03-17T14:43:34;18.10;96.40
21559;DHT22;10940;48.890;8.240;2023-03-17T14:46:29;18.00;96.50
21559;DHT22;10940;48.890;8.240;2023-03-17T14:49:01;18.00;96.80
21559;DHT22;10940;48.890;8.240;2023-03-17T14:51:31;18.00;95.90
21559;DHT22;10940;48.890;8.240;2023-03-17T14:54:00;17.90;96.90
21559;DHT22;10940;48.890;8.240;2023-03-17T14:56:32;17.90;96.70
21559;DHT22;10940;48.890;8.240;2023-03-17T14:59:25;17.80;97.20
21559;DHT22;10940;48.890;8.240;2023-03-17T15:01:53;17.80;96.20
21559;DHT22;10940;48.890;8.240;2023-03-17T15:04:27;17.60;96.00
21559;DHT22;10940;48.890;8.240;2023-03-17T15:06:56;17.50;96.70
21559;DHT22;10940;48.890;8.240;2023-03-17T15:09:35;17.50;97.50
21559;DHT22;10940;48.890;8.240;2023-03-17T15:12:16;17.30;98.70
21559;DHT22;10940;48.890;8.240;2023-03-17T15:14:43;17.20;98.10
21559;DHT22;10940;48.890;8.240;2023-03-17T15:17:30;17.20;96.60
21559;DHT22;10940;48.890;8.240;2023-03-17T15:20:00;17.10;97.70
21559;DHT22;10940;48.890;8.240;2023-03-17T15:22:40;17.00;97.60
21559;DHT22;10940;48.890;8.240;2023-03-17T15:27:42;16.90;99.70
21559;DHT22;10940;48.890;8.240;2023-03-17T15:30:09;16.80;99.20
21559;DHT22;10940;48.890;8.240;2023-03-17T15:32:35;16.90;98.20
21559;DHT22;10940;48.890;8.240;2023-03-17T15:35:01;16.90;98.10
21559;DHT22;10940;48.890;8.240;2023-03-17T15:37:28;17.00;97.60
21559;DHT22;10940;48.890;8.240;2023-03-17T15:39:56;17.00;97.40
21559;DHT22;10940;48.890;8.240;2023-03-17T15:42:29;17.00;97.20
21559;DHT22;10940;48.890;8.240;2023-03-17T15:44:56;17.10;97.40
21559;DHT22;10940;48.890;8.240;2023-03-17T15:47:24;17.00;96.90
21559;DHT22;10940;48.890;8.240;2023-03-17T15:49:51;17.00;97.50
21559;DHT22;10940;48.890;8.240;2023-03-17T15:52:22;16.90;97.90
21559;DHT22;10940;48.890;8.240;2023-03-17T15:54:52;16.90;97.90
21559;DHT22;10940;48.890;8.240;2023-03-17T15:57:18;16.90;97.10
21559;DHT22;10940;48.890;8.240;2023-03-17T15:59:43;16.80;97.40
21559;DHT22;10940;48.890;8.240;2023-03-17T16:04:48;16.70;96.70
21559;DHT22;10940;48.890;8.240;2023-03-17T16:07:13;16.70;97.30
21559;DHT22;10940;48.890;8.240;2023-03-17T16:09:39;16.60;97.60
21559;DHT22;10940;48.890;8.240;2023-03-17T16:12:07;16.60;97.20
21559;DHT22;10940;48.890;8.240;2023-03-17T16:14:33;16.60;97.50
21559;DHT22;10940;48.890;8.240;2023-03-17T16:16:59;16.50;97.50
21559;DHT22;10940;48.890;8.240;2023-03-17T16:19:24;16.50;97.60
21559;DHT22;10940;48.890;8.240;2023-03-17T16:21:50;16.40;98.20
21559;DHT22;10940;48.890;8.240;2023-03-17T16:24:17;16.40;98.70
21559;DHT22;10940;48.890;8.240;2023-03-17T16:26:44;16.20;99.90
21559;DHT22;10940;48.890;8.240;2023-03-17T16:29:15;16.10;99.90
21559;DHT22;10940;48.890;8.240;2023-03-17T16:31:43;16.00;99.90
21559;DHT22;10940;48.890;8.240;2023-03-17T16:34:21;15.90;99.90
21559;DHT22;10940;48.890;8.240;2023-03-17T16:36:47;15.80;99.90
21559;DHT22;10940;48.890;8.240;2023-03-17T16:39:23;15.90;99.90
21559;DHT22;10940;48.890;8.240;2023-03-17T16:41:50;15.90;99.80
21559;DHT22;10940;48.890;8.240;2023-03-17T16:44:19;15.80;99.60
21559;DHT22;10940;48.890;8.240;2023-03-17T16:46:45;15.80;99.80
21559;DHT22;10940;48.890;8.240;2023-03-17T16:49:13;15.70;99.90
21559;DHT22;10940;48.890;8.240;2023-03-17T16:51:40;15.50;99.90
21559;DHT22;10940;48.890;8.240;2023-03-17T16:54:06;15.60;99.90
21559;DHT22;10940;48.890;8.240;2023-03-17T16:56:31;15.50;99.90
21559;DHT22;10940;48.890;8.240;2023-03-17T16:58:57;15.50;99.90
21559;DHT22;10940;48.890;8.240;2023-03-17T17:01:25;15.40;99.90
21559;DHT22;10940;48.890;8.240;2023-03-17T17:03:51;15.20;99.90
21559;DHT22;10940;48.890;8.240;2023-03-17T17:06:18;15.10;99.90
21559;DHT22;10940;48.890;8.240;2023-03-17T17:08:45;14.90;99.90
21559;DHT22;10940;48.890;8.240;2023-03-17T17:11:12;14.80;99.90
21559;DHT22;10940;48.890;8.240;2023-03-17T17:13:44;14.60;99.90
21559;DHT22;10940;48.890;8.240;2023-03-17T17:16:29;14.50;99.90
21559;DHT22;10940;48.890;8.240;2023-03-17T17:18:56;14.40;99.90
21559;DHT22;10940;48.890;8.240;2023-03-17T17:21:21;14.30;99.90
21559;DHT22;10940;48.890;8.240;2023-03-17T17:23:47;14.20;99.90
21559;DHT22;10940;48.890;8.240;2023-03-17T17:26:13;14.10;99.90
21559;DHT22;10940;48.890;8.240;2023-03-17T17:28:39;14.00;99.90
21559;DHT22;10940;48.890;8.240;2023-03-17T17:31:06;13.90;99.90
21559;DHT22;10940;48.890;8.240;2023-03-17T17:33:33;13.80;99.90
21559;DHT22;10940;48.890;8.240;2023-03-17T17:35:58;13.60;99.90
21559;DHT22;10940;48.890;8.240;2023-03-17T17:38:26;13.60;99.90
21559;DHT22;10940;48.890;8.240;2023-03-17T17:40:54;13.50;99.90
21559;DHT22;10940;48.890;8.240;2023-03-17T17:43:20;13.60;99.90
21559;DHT22;10940;48.890;8.240;2023-03-17T17:45:47;13.50;99.90